sensor_id;sensor_type;location;lat;lon;timestamp;temperature;humidity
82788;DHT22;72529;51.786;4.662;2023-11-19T00:01:34;14.93;85.77
82788;DHT22;72529;51.786;4.662;2023-11-19T00:04:00;14.92;85.83
82788;DHT22;72529;51.786;4.662;2023-11-19T00:06:25;14.92;85.73
82788;DHT22;72529;51.786;4.662;2023-11-19T00:08:51;14.92;85.81
82788;DHT22;72529;51.786;4.662;2023-11-19T00:11:16;14.92;85.73
82788;DHT22;72529;51.786;4.662;2023-11-19T00:13:42;14.88;85.87
82788;DHT22;72529;51.786;4.662;2023-11-19T00:16:08;14.86;85.88
82788;DHT22;72529;51.786;4.662;2023-11-19T00:18:35;14.86;85.88
82788;DHT22;72529;51.786;4.662;2023-11-19T00:21:01;14.89;85.51
82788;DHT22;72529;51.786;4.662;2023-11-19T00:23:27;14.82;85.59
82788;DHT22;72529;51.786;4.662;2023-11-19T00:25:52;14.74;85.82
82788;DHT22;72529;51.786;4.662;2023-11-19T00:28:18;14.79;85.86
82788;DHT22;72529;51.786;4.662;2023-11-19T00:30:43;14.78;85.65
82788;DHT22;72529;51.786;4.662;2023-11-19T00:33:09;14.78;85.48
82788;DHT22;72529;51.786;4.662;2023-11-19T00:35:34;14.81;85.50
82788;DHT22;72529;51.786;4.662;2023-11-19T00:37:59;14.81;85.46
82788;DHT22;72529;51.786;4.662;2023-11-19T00:40:26;14.84;85.43
82788;DHT22;72529;51.786;4.662;2023-11-19T00:42:51;14.79;85.51
82788;DHT22;72529;51.786;4.662;2023-11-19T00:45:16;14.77;85.53
82788;DHT22;72529;51.786;4.662;2023-11-19T00:47:42;14.78;85.46
82788;DHT22;72529;51.786;4.662;2023-11-19T00:50:08;14.84;85.00
82788;DHT22;72529;51.786;4.662;2023-11-19T00:52:38;14.79;85.10
82788;DHT22;72529;51.786;4.662;2023-11-19T00:55:04;14.72;85.20
82788;DHT22;72529;51.786;4.662;2023-11-19T00:57:32;14.74;85.08
82788;DHT22;72529;51.786;4.662;2023-11-19T00:59:59;14.79;84.52
82788;DHT22;72529;51.786;4.662;2023-11-19T01:02:24;14.68;84.69
82788;DHT22;72529;51.786;4.662;2023-11-19T01:04:50;14.71;84.50
82788;DHT22;72529;51.786;4.662;2023-11-19T01:07:15;14.64;84.54
82788;DHT22;72529;51.786;4.662;2023-11-19T01:09:41;14.60;84.67
82788;DHT22;72529;51.786;4.662;2023-11-19T01:12:07;14.51;84.59
82788;DHT22;72529;51.786;4.662;2023-11-19T01:14:32;14.49;84.28
82788;DHT22;72529;51.786;4.662;2023-11-19T01:16:58;14.55;84.21
82788;DHT22;72529;51.786;4.662;2023-11-19T01:19:23;14.55;83.95
82788;DHT22;72529;51.786;4.662;2023-11-19T01:21:50;14.60;83.67
82788;DHT22;72529;51.786;4.662;2023-11-19T01:24:16;14.58;83.60
82788;DHT22;72529;51.786;4.662;2023-11-19T01:26:41;14.49;83.65
82788;DHT22;72529;51.786;4.662;2023-11-19T01:29:13;14.49;83.63
82788;DHT22;72529;51.786;4.662;2023-11-19T01:31:42;14.40;83.60
82788;DHT22;72529;51.786;4.662;2023-11-19T01:34:07;14.35;83.47
82788;DHT22;72529;51.786;4.662;2023-11-19T01:36:33;14.31;83.50
82788;DHT22;72529;51.786;4.662;2023-11-19T01:38:59;14.23;83.56
82788;DHT22;72529;51.786;4.662;2023-11-19T01:41:24;14.18;83.83
82788;DHT22;72529;51.786;4.662;2023-11-19T01:43:50;14.16;83.64
82788;DHT22;72529;51.786;4.662;2023-11-19T01:46:15;14.07;83.84
82788;DHT22;72529;51.786;4.662;2023-11-19T01:48:45;14.12;83.68
82788;DHT22;72529;51.786;4.662;2023-11-19T01:51:12;14.04;83.63
82788;DHT22;72529;51.786;4.662;2023-11-19T01:53:39;14.09;83.41
82788;DHT22;72529;51.786;4.662;2023-11-19T01:56:09;14.13;83.45
82788;DHT22;72529;51.786;4.662;2023-11-19T01:58:37;14.12;83.23
82788;DHT22;72529;51.786;4.662;2023-11-19T02:01:05;14.09;83.18
82788;DHT22;72529;51.786;4.662;2023-11-19T02:03:31;14.02;83.06
82788;DHT22;72529;51.786;4.662;2023-11-19T02:05:58;13.99;83.54
82788;DHT22;72529;51.786;4.662;2023-11-19T02:08:24;13.93;83.56
82788;DHT22;72529;51.786;4.662;2023-11-19T02:10:49;13.97;83.71
82788;DHT22;72529;51.786;4.662;2023-11-19T02:13:15;13.96;83.59
82788;DHT22;72529;51.786;4.662;2023-11-19T02:15:41;13.89;83.72
82788;DHT22;72529;51.786;4.662;2023-11-19T02:18:27;13.94;83.79
82788;DHT22;72529;51.786;4.662;2023-11-19T02:20:57;13.91;83.58
82788;DHT22;72529;51.786;4.662;2023-11-19T02:23:26;13.90;83.72
82788;DHT22;72529;51.786;4.662;2023-11-19T02:26:18;13.87;83.46
82788;DHT22;72529;51.786;4.662;2023-11-19T02:28:46;13.86;83.51
82788;DHT22;72529;51.786;4.662;2023-11-19T02:31:11;13.86;83.67
82788;DHT22;72529;51.786;4.662;2023-11-19T02:33:38;13.83;83.58
82788;DHT22;72529;51.786;4.662;2023-11-19T02:36:07;13.80;83.51
82788;DHT22;72529;51.786;4.662;2023-11-19T02:38:34;13.76;83.59
82788;DHT22;72529;51.786;4.662;2023-11-19T02:41:02;13.73;83.60
82788;DHT22;72529;51.786;4.662;2023-11-19T02:43:28;13.72;83.50
82788;DHT22;72529;51.786;4.662;2023-11-19T02:45:53;13.72;83.46
82788;DHT22;72529;51.786;4.662;2023-11-19T02:48:21;13.69;83.49
82788;DHT22;72529;51.786;4.662;2023-11-19T02:50:46;13.69;83.32
82788;DHT22;72529;51.786;4.662;2023-11-19T02:53:13;13.66;83.29
82788;DHT22;72529;51.786;4.662;2023-11-19T02:55:38;13.66;83.48
82788;DHT22;72529;51.786;4.662;2023-11-19T02:58:06;13.62;83.30
82788;DHT22;72529;51.786;4.662;2023-11-19T03:00:45;13.59;83.27
82788;DHT22;72529;51.786;4.662;2023-11-19T03:03:19;13.56;83.21
82788;DHT22;72529;51.786;4.662;2023-11-19T03:05:49;13.55;83.07
82788;DHT22;72529;51.786;4.662;2023-11-19T03:08:15;13.48;82.84
82788;DHT22;72529;51.786;4.662;2023-11-19T03:10:41;13.43;83.01
82788;DHT22;72529;51.786;4.662;2023-11-19T03:13:11;13.48;82.78
82788;DHT22;72529;51.786;4.662;2023-11-19T03:15:38;13.45;82.68
82788;DHT22;72529;51.786;4.662;2023-11-19T03:18:03;13.36;82.69
82788;DHT22;72529;51.786;4.662;2023-11-19T03:20:29;13.43;82.71
82788;DHT22;72529;51.786;4.662;2023-11-19T03:22:55;13.43;82.20
82788;DHT22;72529;51.786;4.662;2023-11-19T03:25:25;13.40;82.32
82788;DHT22;72529;51.786;4.662;2023-11-19T03:27:52;13.40;82.27
82788;DHT22;72529;51.786;4.662;2023-11-19T03:30:18;13.40;82.02
82788;DHT22;72529;51.786;4.662;2023-11-19T03:32:44;13.39;81.93
82788;DHT22;72529;51.786;4.662;2023-11-19T03:35:09;13.35;81.94
82788;DHT22;72529;51.786;4.662;2023-11-19T03:37:37;13.34;81.87
82788;DHT22;72529;51.786;4.662;2023-11-19T03:40:02;13.30;82.27
82788;DHT22;72529;51.786;4.662;2023-11-19T03:42:29;13.35;82.05
82788;DHT22;72529;51.786;4.662;2023-11-19T03:44:57;13.36;82.15
82788;DHT22;72529;51.786;4.662;2023-11-19T03:47:23;13.34;82.45
82788;DHT22;72529;51.786;4.662;2023-11-19T03:49:50;13.35;82.71
82788;DHT22;72529;51.786;4.662;2023-11-19T03:52:16;13.28;82.71
82788;DHT22;72529;51.786;4.662;2023-11-19T03:54:41;13.29;82.43
82788;DHT22;72529;51.786;4.662;2023-11-19T03:57:07;13.32;82.55
82788;DHT22;72529;51.786;4.662;2023-11-19T03:59:32;13.26;82.45
82788;DHT22;72529;51.786;4.662;2023-11-19T04:01:59;13.29;82.38
82788;DHT22;72529;51.786;4.662;2023-11-19T04:04:26;13.34;81.95
82788;DHT22;72529;51.786;4.662;2023-11-19T04:06:52;13.29;82.09
82788;DHT22;72529;51.786;4.662;2023-11-19T04:09:17;13.22;82.48
82788;DHT22;72529;51.786;4.662;2023-11-19T04:11:43;13.30;82.17
82788;DHT22;72529;51.786;4.662;2023-11-19T04:14:08;13.20;82.36
82788;DHT22;72529;51.786;4.662;2023-11-19T04:16:35;13.25;82.09
82788;DHT22;72529;51.786;4.662;2023-11-19T04:19:00;13.20;82.42
82788;DHT22;72529;51.786;4.662;2023-11-19T04:21:26;13.20;82.01
82788;DHT22;72529;51.786;4.662;2023-11-19T04:23:52;13.12;82.26
82788;DHT22;72529;51.786;4.662;2023-11-19T04:26:17;13.08;82.55
82788;DHT22;72529;51.786;4.662;2023-11-19T04:28:43;13.12;82.07
82788;DHT22;72529;51.786;4.662;2023-11-19T04:31:08;13.11;82.24
82788;DHT22;72529;51.786;4.662;2023-11-19T04:33:34;13.09;82.04
82788;DHT22;72529;51.786;4.662;2023-11-19T04:36:00;13.08;81.97
82788;DHT22;72529;51.786;4.662;2023-11-19T04:38:25;13.05;81.97
82788;DHT22;72529;51.786;4.662;2023-11-19T04:40:52;13.08;81.45
82788;DHT22;72529;51.786;4.662;2023-11-19T04:43:17;13.09;81.60
82788;DHT22;72529;51.786;4.662;2023-11-19T04:45:43;13.08;81.71
82788;DHT22;72529;51.786;4.662;2023-11-19T04:48:08;13.14;81.65
82788;DHT22;72529;51.786;4.662;2023-11-19T04:50:34;13.12;81.57
82788;DHT22;72529;51.786;4.662;2023-11-19T04:52:59;13.11;81.71
82788;DHT22;72529;51.786;4.662;2023-11-19T04:55:25;13.07;81.49
82788;DHT22;72529;51.786;4.662;2023-11-19T04:57:50;13.11;81.55
82788;DHT22;72529;51.786;4.662;2023-11-19T05:00:19;13.08;81.56
82788;DHT22;72529;51.786;4.662;2023-11-19T05:02:44;13.12;81.48
82788;DHT22;72529;51.786;4.662;2023-11-19T05:05:10;13.08;81.54
82788;DHT22;72529;51.786;4.662;2023-11-19T05:07:35;13.05;81.70
82788;DHT22;72529;51.786;4.662;2023-11-19T05:10:01;13.04;81.93
82788;DHT22;72529;51.786;4.662;2023-11-19T05:12:26;12.99;82.26
82788;DHT22;72529;51.786;4.662;2023-11-19T05:14:52;12.99;82.28
82788;DHT22;72529;51.786;4.662;2023-11-19T05:17:17;12.99;82.29
82788;DHT22;72529;51.786;4.662;2023-11-19T05:19:43;13.04;82.39
82788;DHT22;72529;51.786;4.662;2023-11-19T05:22:09;13.07;82.41
82788;DHT22;72529;51.786;4.662;2023-11-19T05:24:34;13.07;82.51
82788;DHT22;72529;51.786;4.662;2023-11-19T05:27:01;13.07;82.54
82788;DHT22;72529;51.786;4.662;2023-11-19T05:29:27;13.07;82.45
82788;DHT22;72529;51.786;4.662;2023-11-19T05:31:53;13.07;82.44
82788;DHT22;72529;51.786;4.662;2023-11-19T05:34:20;13.04;82.30
82788;DHT22;72529;51.786;4.662;2023-11-19T05:36:46;13.05;82.18
82788;DHT22;72529;51.786;4.662;2023-11-19T05:39:12;13.02;82.34
82788;DHT22;72529;51.786;4.662;2023-11-19T05:41:37;12.99;82.31
82788;DHT22;72529;51.786;4.662;2023-11-19T05:44:02;13.01;82.14
82788;DHT22;72529;51.786;4.662;2023-11-19T05:46:28;13.01;81.99
82788;DHT22;72529;51.786;4.662;2023-11-19T05:48:53;12.97;81.81
82788;DHT22;72529;51.786;4.662;2023-11-19T05:51:19;13.01;81.76
82788;DHT22;72529;51.786;4.662;2023-11-19T05:53:45;12.94;81.93
82788;DHT22;72529;51.786;4.662;2023-11-19T05:56:15;12.99;81.75
82788;DHT22;72529;51.786;4.662;2023-11-19T05:58:46;12.91;81.94
82788;DHT22;72529;51.786;4.662;2023-11-19T06:01:13;12.95;81.97
82788;DHT22;72529;51.786;4.662;2023-11-19T06:03:39;12.95;81.78
82788;DHT22;72529;51.786;4.662;2023-11-19T06:06:05;12.87;81.93
82788;DHT22;72529;51.786;4.662;2023-11-19T06:08:30;12.87;81.99
82788;DHT22;72529;51.786;4.662;2023-11-19T06:10:57;12.92;81.95
82788;DHT22;72529;51.786;4.662;2023-11-19T06:13:22;12.85;82.09
82788;DHT22;72529;51.786;4.662;2023-11-19T06:15:47;12.88;82.08
82788;DHT22;72529;51.786;4.662;2023-11-19T06:18:13;12.83;82.20
82788;DHT22;72529;51.786;4.662;2023-11-19T06:20:40;12.80;82.41
82788;DHT22;72529;51.786;4.662;2023-11-19T06:23:05;12.75;82.56
82788;DHT22;72529;51.786;4.662;2023-11-19T06:25:32;12.71;82.40
82788;DHT22;72529;51.786;4.662;2023-11-19T06:27:58;12.73;82.43
82788;DHT22;72529;51.786;4.662;2023-11-19T06:30:24;12.69;82.43
82788;DHT22;72529;51.786;4.662;2023-11-19T06:32:49;12.69;82.36
82788;DHT22;72529;51.786;4.662;2023-11-19T06:35:15;12.64;82.54
82788;DHT22;72529;51.786;4.662;2023-11-19T06:37:41;12.61;82.47
82788;DHT22;72529;51.786;4.662;2023-11-19T06:40:07;12.58;82.56
82788;DHT22;72529;51.786;4.662;2023-11-19T06:42:34;12.61;82.40
82788;DHT22;72529;51.786;4.662;2023-11-19T06:45:00;12.67;82.03
82788;DHT22;72529;51.786;4.662;2023-11-19T06:47:26;12.69;81.90
82788;DHT22;72529;51.786;4.662;2023-11-19T06:49:53;12.65;82.21
82788;DHT22;72529;51.786;4.662;2023-11-19T06:52:19;12.68;81.86
82788;DHT22;72529;51.786;4.662;2023-11-19T06:54:45;12.67;81.92
82788;DHT22;72529;51.786;4.662;2023-11-19T06:57:13;12.61;82.03
82788;DHT22;72529;51.786;4.662;2023-11-19T06:59:39;12.60;82.25
82788;DHT22;72529;51.786;4.662;2023-11-19T07:02:05;12.58;82.40
82788;DHT22;72529;51.786;4.662;2023-11-19T07:04:32;12.64;82.25
82788;DHT22;72529;51.786;4.662;2023-11-19T07:06:58;12.65;82.09
82788;DHT22;72529;51.786;4.662;2023-11-19T07:09:25;12.64;82.11
82788;DHT22;72529;51.786;4.662;2023-11-19T07:11:50;12.65;81.98
82788;DHT22;72529;51.786;4.662;2023-11-19T07:14:18;12.64;81.90
82788;DHT22;72529;51.786;4.662;2023-11-19T07:16:44;12.64;81.73
82788;DHT22;72529;51.786;4.662;2023-11-19T07:19:11;12.61;81.86
82788;DHT22;72529;51.786;4.662;2023-11-19T07:21:41;12.57;82.04
82788;DHT22;72529;51.786;4.662;2023-11-19T07:24:09;12.58;82.09
82788;DHT22;72529;51.786;4.662;2023-11-19T07:26:35;12.54;82.06
82788;DHT22;72529;51.786;4.662;2023-11-19T07:29:00;12.57;81.98
82788;DHT22;72529;51.786;4.662;2023-11-19T07:31:27;12.54;82.16
82788;DHT22;72529;51.786;4.662;2023-11-19T07:33:53;12.54;81.99
82788;DHT22;72529;51.786;4.662;2023-11-19T07:36:19;12.53;82.08
82788;DHT22;72529;51.786;4.662;2023-11-19T07:38:45;12.57;82.03
82788;DHT22;72529;51.786;4.662;2023-11-19T07:41:11;12.58;82.17
82788;DHT22;72529;51.786;4.662;2023-11-19T07:43:43;12.68;82.05
82788;DHT22;72529;51.786;4.662;2023-11-19T07:46:13;12.67;81.78
82788;DHT22;72529;51.786;4.662;2023-11-19T07:48:39;12.69;81.61
82788;DHT22;72529;51.786;4.662;2023-11-19T07:51:05;12.73;81.90
82788;DHT22;72529;51.786;4.662;2023-11-19T07:53:30;12.75;81.89
82788;DHT22;72529;51.786;4.662;2023-11-19T07:55:56;12.75;81.69
82788;DHT22;72529;51.786;4.662;2023-11-19T07:58:21;12.73;81.82
82788;DHT22;72529;51.786;4.662;2023-11-19T08:00:47;12.81;81.75
82788;DHT22;72529;51.786;4.662;2023-11-19T08:03:12;12.83;81.58
82788;DHT22;72529;51.786;4.662;2023-11-19T08:05:37;12.88;81.48
82788;DHT22;72529;51.786;4.662;2023-11-19T08:08:03;12.92;81.45
82788;DHT22;72529;51.786;4.662;2023-11-19T08:10:29;12.97;81.46
82788;DHT22;72529;51.786;4.662;2023-11-19T08:12:54;12.99;81.41
82788;DHT22;72529;51.786;4.662;2023-11-19T08:15:20;13.05;81.27
82788;DHT22;72529;51.786;4.662;2023-11-19T08:17:45;13.05;81.11
82788;DHT22;72529;51.786;4.662;2023-11-19T08:20:11;13.19;80.71
82788;DHT22;72529;51.786;4.662;2023-11-19T08:22:37;13.18;80.83
82788;DHT22;72529;51.786;4.662;2023-11-19T08:25:06;13.22;80.49
82788;DHT22;72529;51.786;4.662;2023-11-19T08:27:32;13.18;80.64
82788;DHT22;72529;51.786;4.662;2023-11-19T08:29:58;13.19;80.55
82788;DHT22;72529;51.786;4.662;2023-11-19T08:32:27;13.14;80.89
82788;DHT22;72529;51.786;4.662;2023-11-19T08:34:53;13.11;80.73
82788;DHT22;72529;51.786;4.662;2023-11-19T08:37:18;13.08;81.04
82788;DHT22;72529;51.786;4.662;2023-11-19T08:39:50;13.09;81.00
82788;DHT22;72529;51.786;4.662;2023-11-19T08:42:16;13.18;80.21
82788;DHT22;72529;51.786;4.662;2023-11-19T08:44:42;13.14;80.67
82788;DHT22;72529;51.786;4.662;2023-11-19T08:47:12;13.18;80.26
82788;DHT22;72529;51.786;4.662;2023-11-19T08:49:39;13.12;80.36
82788;DHT22;72529;51.786;4.662;2023-11-19T08:52:05;13.15;80.40
82788;DHT22;72529;51.786;4.662;2023-11-19T08:54:33;13.22;80.38
82788;DHT22;72529;51.786;4.662;2023-11-19T08:56:59;13.20;80.13
82788;DHT22;72529;51.786;4.662;2023-11-19T08:59:25;13.28;79.88
82788;DHT22;72529;51.786;4.662;2023-11-19T09:01:50;13.26;80.23
82788;DHT22;72529;51.786;4.662;2023-11-19T09:04:15;13.35;80.04
82788;DHT22;72529;51.786;4.662;2023-11-19T09:06:41;13.36;79.85
82788;DHT22;72529;51.786;4.662;2023-11-19T09:09:08;13.39;80.00
82788;DHT22;72529;51.786;4.662;2023-11-19T09:11:33;13.38;79.88
82788;DHT22;72529;51.786;4.662;2023-11-19T09:13:59;13.46;79.61
82788;DHT22;72529;51.786;4.662;2023-11-19T09:16:24;13.49;79.80
82788;DHT22;72529;51.786;4.662;2023-11-19T09:18:50;13.48;79.84
82788;DHT22;72529;51.786;4.662;2023-11-19T09:21:16;13.53;79.36
82788;DHT22;72529;51.786;4.662;2023-11-19T09:23:41;13.53;79.81
82788;DHT22;72529;51.786;4.662;2023-11-19T09:26:08;13.56;79.51
82788;DHT22;72529;51.786;4.662;2023-11-19T09:28:35;13.60;79.58
82788;DHT22;72529;51.786;4.662;2023-11-19T09:31:01;13.59;79.52
82788;DHT22;72529;51.786;4.662;2023-11-19T09:33:29;13.66;79.29
82788;DHT22;72529;51.786;4.662;2023-11-19T09:35:55;13.65;79.58
82788;DHT22;72529;51.786;4.662;2023-11-19T09:38:20;13.65;79.56
82788;DHT22;72529;51.786;4.662;2023-11-19T09:40:46;13.63;79.37
82788;DHT22;72529;51.786;4.662;2023-11-19T09:43:14;13.63;79.70
82788;DHT22;72529;51.786;4.662;2023-11-19T09:45:50;13.65;79.38
82788;DHT22;72529;51.786;4.662;2023-11-19T09:48:19;13.73;79.69
82788;DHT22;72529;51.786;4.662;2023-11-19T09:50:48;13.86;79.57
82788;DHT22;72529;51.786;4.662;2023-11-19T09:53:15;13.96;79.55
82788;DHT22;72529;51.786;4.662;2023-11-19T09:55:42;13.96;78.54
82788;DHT22;72529;51.786;4.662;2023-11-19T09:58:07;13.96;78.85
82788;DHT22;72529;51.786;4.662;2023-11-19T10:00:34;13.94;78.77
82788;DHT22;72529;51.786;4.662;2023-11-19T10:03:00;14.00;79.02
82788;DHT22;72529;51.786;4.662;2023-11-19T10:05:27;14.06;78.55
82788;DHT22;72529;51.786;4.662;2023-11-19T10:07:52;14.06;78.83
82788;DHT22;72529;51.786;4.662;2023-11-19T10:10:18;14.04;78.45
82788;DHT22;72529;51.786;4.662;2023-11-19T10:12:51;14.07;78.78
82788;DHT22;72529;51.786;4.662;2023-11-19T10:15:24;14.14;79.00
82788;DHT22;72529;51.786;4.662;2023-11-19T10:17:57;14.14;78.41
82788;DHT22;72529;51.786;4.662;2023-11-19T10:20:23;14.21;78.68
82788;DHT22;72529;51.786;4.662;2023-11-19T10:22:52;14.25;78.35
82788;DHT22;72529;51.786;4.662;2023-11-19T10:25:28;14.31;78.06
82788;DHT22;72529;51.786;4.662;2023-11-19T10:27:56;14.35;78.22
82788;DHT22;72529;51.786;4.662;2023-11-19T10:30:26;14.37;78.41
82788;DHT22;72529;51.786;4.662;2023-11-19T10:33:08;14.40;77.80
82788;DHT22;72529;51.786;4.662;2023-11-19T10:35:56;14.48;77.78
82788;DHT22;72529;51.786;4.662;2023-11-19T10:38:25;14.67;77.31
82788;DHT22;72529;51.786;4.662;2023-11-19T10:40:52;14.64;77.20
82788;DHT22;72529;51.786;4.662;2023-11-19T10:43:21;14.67;77.22
82788;DHT22;72529;51.786;4.662;2023-11-19T10:45:48;14.74;76.89
82788;DHT22;72529;51.786;4.662;2023-11-19T10:48:14;14.79;76.71
82788;DHT22;72529;51.786;4.662;2023-11-19T10:50:42;14.78;77.15
82788;DHT22;72529;51.786;4.662;2023-11-19T10:53:10;14.86;77.01
82788;DHT22;72529;51.786;4.662;2023-11-19T10:55:38;14.92;76.34
82788;DHT22;72529;51.786;4.662;2023-11-19T10:58:06;14.93;76.27
82788;DHT22;72529;51.786;4.662;2023-11-19T11:00:48;14.88;76.21
82788;DHT22;72529;51.786;4.662;2023-11-19T11:03:20;14.88;76.46
82788;DHT22;72529;51.786;4.662;2023-11-19T11:05:52;14.79;75.75
82788;DHT22;72529;51.786;4.662;2023-11-19T11:08:19;14.74;76.28
82788;DHT22;72529;51.786;4.662;2023-11-19T11:10:57;14.67;76.95
82788;DHT22;72529;51.786;4.662;2023-11-19T11:13:25;14.58;76.39
82788;DHT22;72529;51.786;4.662;2023-11-19T11:15:55;14.65;76.87
82788;DHT22;72529;51.786;4.662;2023-11-19T11:18:21;14.77;77.03
82788;DHT22;72529;51.786;4.662;2023-11-19T11:20:51;14.81;76.24
82788;DHT22;72529;51.786;4.662;2023-11-19T11:31:48;15.10;76.39
82788;DHT22;72529;51.786;4.662;2023-11-19T11:34:31;15.12;76.33
82788;DHT22;72529;51.786;4.662;2023-11-19T11:37:12;15.13;76.04
82788;DHT22;72529;51.786;4.662;2023-11-19T11:39:40;15.19;76.13
82788;DHT22;72529;51.786;4.662;2023-11-19T11:42:31;15.09;76.22
82788;DHT22;72529;51.786;4.662;2023-11-19T11:45:06;15.12;76.33
82788;DHT22;72529;51.786;4.662;2023-11-19T11:50:16;15.20;76.24
82788;DHT22;72529;51.786;4.662;2023-11-19T11:55:34;15.20;76.13
82788;DHT22;72529;51.786;4.662;2023-11-19T11:58:00;15.30;75.71
82788;DHT22;72529;51.786;4.662;2023-11-19T12:00:33;15.26;75.37
82788;DHT22;72529;51.786;4.662;2023-11-19T12:03:04;15.38;76.21
82788;DHT22;72529;51.786;4.662;2023-11-19T12:05:30;15.39;75.46
82788;DHT22;72529;51.786;4.662;2023-11-19T12:08:01;15.32;76.18
82788;DHT22;72529;51.786;4.662;2023-11-19T12:10:31;15.46;75.39
82788;DHT22;72529;51.786;4.662;2023-11-19T12:13:01;15.47;75.20
82788;DHT22;72529;51.786;4.662;2023-11-19T12:15:27;15.60;76.12
82788;DHT22;72529;51.786;4.662;2023-11-19T12:17:54;15.59;75.90
82788;DHT22;72529;51.786;4.662;2023-11-19T12:20:25;15.54;74.70
82788;DHT22;72529;51.786;4.662;2023-11-19T12:22:52;15.42;75.26
82788;DHT22;72529;51.786;4.662;2023-11-19T12:25:19;15.29;76.04
82788;DHT22;72529;51.786;4.662;2023-11-19T12:27:52;15.33;76.77
82788;DHT22;72529;51.786;4.662;2023-11-19T12:30:25;15.36;76.87
82788;DHT22;72529;51.786;4.662;2023-11-19T12:32:52;15.32;76.37
82788;DHT22;72529;51.786;4.662;2023-11-19T12:35:20;15.22;76.73
82788;DHT22;72529;51.786;4.662;2023-11-19T12:37:48;15.06;76.75
82788;DHT22;72529;51.786;4.662;2023-11-19T12:40:19;15.03;77.52
82788;DHT22;72529;51.786;4.662;2023-11-19T12:42:46;15.09;76.72
82788;DHT22;72529;51.786;4.662;2023-11-19T12:45:12;15.10;76.41
82788;DHT22;72529;51.786;4.662;2023-11-19T12:47:42;15.08;76.39
82788;DHT22;72529;51.786;4.662;2023-11-19T12:50:09;15.09;76.38
82788;DHT22;72529;51.786;4.662;2023-11-19T12:52:38;15.13;76.35
82788;DHT22;72529;51.786;4.662;2023-11-19T12:55:06;15.22;76.31
82788;DHT22;72529;51.786;4.662;2023-11-19T12:57:48;15.22;76.99
82788;DHT22;72529;51.786;4.662;2023-11-19T13:00:22;15.28;76.22
82788;DHT22;72529;51.786;4.662;2023-11-19T13:02:53;15.28;76.16
82788;DHT22;72529;51.786;4.662;2023-11-19T13:05:30;15.25;76.54
82788;DHT22;72529;51.786;4.662;2023-11-19T13:10:28;15.26;76.49
82788;DHT22;72529;51.786;4.662;2023-11-19T13:13:20;15.20;76.29
82788;DHT22;72529;51.786;4.662;2023-11-19T13:15:46;15.19;76.50
82788;DHT22;72529;51.786;4.662;2023-11-19T13:18:12;15.25;75.77
82788;DHT22;72529;51.786;4.662;2023-11-19T13:20:39;15.19;75.30
82788;DHT22;72529;51.786;4.662;2023-11-19T13:23:06;15.05;75.27
82788;DHT22;72529;51.786;4.662;2023-11-19T13:25:36;14.95;76.05
82788;DHT22;72529;51.786;4.662;2023-11-19T13:28:01;14.95;76.08
82788;DHT22;72529;51.786;4.662;2023-11-19T13:30:27;14.86;75.86
82788;DHT22;72529;51.786;4.662;2023-11-19T13:32:53;14.81;76.18
82788;DHT22;72529;51.786;4.662;2023-11-19T13:35:21;14.72;76.56
82788;DHT22;72529;51.786;4.662;2023-11-19T13:37:47;14.61;75.86
82788;DHT22;72529;51.786;4.662;2023-11-19T13:40:13;14.58;76.63
82788;DHT22;72529;51.786;4.662;2023-11-19T13:42:40;14.57;76.40
82788;DHT22;72529;51.786;4.662;2023-11-19T13:45:12;14.58;76.19
82788;DHT22;72529;51.786;4.662;2023-11-19T13:50:08;14.55;76.81
82788;DHT22;72529;51.786;4.662;2023-11-19T13:52:34;14.57;76.51
82788;DHT22;72529;51.786;4.662;2023-11-19T13:55:00;14.55;75.83
82788;DHT22;72529;51.786;4.662;2023-11-19T13:57:25;14.48;76.68
82788;DHT22;72529;51.786;4.662;2023-11-19T13:59:51;14.49;76.22
82788;DHT22;72529;51.786;4.662;2023-11-19T14:02:16;14.48;76.88
82788;DHT22;72529;51.786;4.662;2023-11-19T14:04:42;14.51;76.59
82788;DHT22;72529;51.786;4.662;2023-11-19T14:07:07;14.48;76.67
82788;DHT22;72529;51.786;4.662;2023-11-19T14:09:32;14.52;76.40
82788;DHT22;72529;51.786;4.662;2023-11-19T14:11:58;14.52;76.85
82788;DHT22;72529;51.786;4.662;2023-11-19T14:14:23;14.51;75.86
82788;DHT22;72529;51.786;4.662;2023-11-19T14:16:49;14.58;75.07
82788;DHT22;72529;51.786;4.662;2023-11-19T14:19:14;14.58;75.70
82788;DHT22;72529;51.786;4.662;2023-11-19T14:21:40;14.64;74.81
82788;DHT22;72529;51.786;4.662;2023-11-19T14:24:05;14.65;74.89
82788;DHT22;72529;51.786;4.662;2023-11-19T14:26:31;14.68;74.60
82788;DHT22;72529;51.786;4.662;2023-11-19T14:28:56;14.72;73.99
82788;DHT22;72529;51.786;4.662;2023-11-19T14:31:22;14.75;73.03
82788;DHT22;72529;51.786;4.662;2023-11-19T14:33:47;14.75;72.95
82788;DHT22;72529;51.786;4.662;2023-11-19T14:36:14;14.78;73.61
82788;DHT22;72529;51.786;4.662;2023-11-19T14:38:39;14.79;73.60
82788;DHT22;72529;51.786;4.662;2023-11-19T14:41:05;14.79;73.64
82788;DHT22;72529;51.786;4.662;2023-11-19T14:43:31;14.78;74.42
82788;DHT22;72529;51.786;4.662;2023-11-19T14:45:56;14.64;73.68
82788;DHT22;72529;51.786;4.662;2023-11-19T14:48:22;14.51;74.18
82788;DHT22;72529;51.786;4.662;2023-11-19T14:50:47;14.51;74.34
82788;DHT22;72529;51.786;4.662;2023-11-19T14:53:13;14.57;74.50
82788;DHT22;72529;51.786;4.662;2023-11-19T14:55:38;14.60;75.16
82788;DHT22;72529;51.786;4.662;2023-11-19T14:58:04;14.60;74.66
82788;DHT22;72529;51.786;4.662;2023-11-19T15:00:29;14.57;75.30
82788;DHT22;72529;51.786;4.662;2023-11-19T15:02:55;14.61;74.92
82788;DHT22;72529;51.786;4.662;2023-11-19T15:05:22;14.61;74.52
82788;DHT22;72529;51.786;4.662;2023-11-19T15:07:47;14.64;74.52
82788;DHT22;72529;51.786;4.662;2023-11-19T15:10:13;14.60;75.05
82788;DHT22;72529;51.786;4.662;2023-11-19T15:12:39;14.61;75.28
82788;DHT22;72529;51.786;4.662;2023-11-19T15:15:09;14.57;75.07
82788;DHT22;72529;51.786;4.662;2023-11-19T15:17:38;14.51;75.37
82788;DHT22;72529;51.786;4.662;2023-11-19T15:20:04;14.45;75.62
82788;DHT22;72529;51.786;4.662;2023-11-19T15:22:29;14.38;75.59
82788;DHT22;72529;51.786;4.662;2023-11-19T15:24:55;14.34;75.92
82788;DHT22;72529;51.786;4.662;2023-11-19T15:27:20;14.27;76.31
82788;DHT22;72529;51.786;4.662;2023-11-19T15:29:46;14.25;76.20
82788;DHT22;72529;51.786;4.662;2023-11-19T15:32:11;14.27;76.07
82788;DHT22;72529;51.786;4.662;2023-11-19T15:34:36;14.33;76.37
82788;DHT22;72529;51.786;4.662;2023-11-19T15:37:03;14.21;77.15
82788;DHT22;72529;51.786;4.662;2023-11-19T15:39:29;14.13;77.58
82788;DHT22;72529;51.786;4.662;2023-11-19T15:41:55;14.10;77.60
82788;DHT22;72529;51.786;4.662;2023-11-19T15:44:23;13.97;78.68
82788;DHT22;72529;51.786;4.662;2023-11-19T15:46:49;13.97;78.73
82788;DHT22;72529;51.786;4.662;2023-11-19T15:49:14;13.97;79.39